Time;durP1;ratioP1;P1;durP2;ratioP2;P2;SDS_P1;SDS_P2;PMS_P1;PMS_P2;Temp;Humidity;BMP_temperature;BMP_pressure;BME280_temperature;BME280_humidity;BME280_pressure;Samples;Min_cycle;Max_cycle;Signal;HPM_P1;HPM_P2
2024/03/11 00:00:15;;;;;;;38.13;19.38;;;5.90;99.90;;;;;;5052462;28;20040;-91
2024/03/11 00:02:42;;;;;;;36.60;17.58;;;6.00;99.90;;;;;;5053471;28;20040;-92
2024/03/11 00:05:11;;;;;;;32.15;17.42;;;6.50;99.90;;;;;;5049089;28;20044;-92
2024/03/11 00:07:40;;;;;;;32.78;18.02;;;6.50;99.90;;;;;;5070603;28;20090;-92
2024/03/11 00:10:14;;;;;;;37.00;17.42;;;6.10;99.90;;;;;;5040877;28;20407;-91
2024/03/11 00:12:49;;;;;;;36.25;18.05;;;5.90;99.90;;;;;;5040453;28;20378;-91
2024/03/11 00:15:15;;;;;;;36.50;18.85;;;5.90;99.90;;;;;;5036654;28;20120;-92
2024/03/11 00:17:42;;;;;;;32.67;17.70;;;5.80;99.90;;;;;;5053082;28;20144;-92
2024/03/11 00:20:09;;;;;;;36.63;18.33;;;5.80;99.90;;;;;;5048951;28;20033;-91
2024/03/11 00:22:37;;;;;;;38.78;18.58;;;5.80;99.90;;;;;;5054408;28;20037;-92
2024/03/11 00:25:08;;;;;;;34.63;18.45;;;5.90;99.90;;;;;;5054106;28;20513;-92
2024/03/11 00:27:36;;;;;;;34.55;17.80;;;5.80;99.90;;;;;;5054261;28;20045;-91
2024/03/11 00:30:11;;;;;;;34.55;18.00;;;6.70;99.90;;;;;;5041530;28;20060;-92
2024/03/11 00:32:44;;;;;;;37.35;18.38;;;5.70;99.90;;;;;;5051699;28;20571;-92
2024/03/11 00:35:12;;;;;;;37.45;17.85;;;6.10;99.90;;;;;;5052580;28;20155;-91
2024/03/11 00:37:38;;;;;;;38.58;18.27;;;5.70;99.90;;;;;;5054011;28;20077;-92
2024/03/11 00:40:06;;;;;;;37.25;18.20;;;5.90;99.90;;;;;;5049157;28;20073;-92
2024/03/11 00:42:38;;;;;;;37.95;17.42;;;5.70;99.90;;;;;;5039030;28;20048;-91
2024/03/11 00:45:12;;;;;;;34.25;17.55;;;6.40;99.90;;;;;;5053383;28;20032;-93
2024/03/11 00:47:40;;;;;;;33.88;17.48;;;5.70;99.90;;;;;;5050965;28;20790;-92
2024/03/11 00:50:09;;;;;;;36.88;17.98;;;5.70;99.90;;;;;;5044434;28;20033;-91
2024/03/11 00:52:36;;;;;;;31.92;16.90;;;5.70;99.90;;;;;;5049431;28;20040;-91
2024/03/11 00:55:06;;;;;;;34.70;16.73;;;5.70;99.90;;;;;;5042297;28;20041;-92
2024/03/11 00:57:35;;;;;;;35.80;17.98;;;5.70;99.90;;;;;;5047408;28;20060;-93
2024/03/11 01:00:08;;;;;;;34.13;17.10;;;5.80;99.90;;;;;;5045498;28;20071;-92
2024/03/11 01:02:35;;;;;;;33.35;17.15;;;5.70;99.90;;;;;;5046891;28;20140;-92
2024/03/11 01:05:02;;;;;;;36.15;17.40;;;6.90;99.90;;;;;;5050083;28;20045;-92
2024/03/11 01:07:29;;;;;;;36.50;17.67;;;5.70;99.90;;;;;;5053628;28;20047;-92
2024/03/11 01:09:56;;;;;;;33.88;17.10;;;6.90;99.90;;;;;;5052210;28;20034;-92
2024/03/11 01:12:22;;;;;;;37.47;17.30;;;6.20;99.90;;;;;;5038453;28;20056;-91
2024/03/11 01:14:51;;;;;;;36.67;16.95;;;6.70;99.90;;;;;;5045578;28;20045;-93
2024/03/11 01:17:18;;;;;;;34.03;17.35;;;6.60;99.90;;;;;;5055271;28;20041;-91
2024/03/11 01:19:45;;;;;;;32.35;17.20;;;6.80;99.90;;;;;;5047547;28;20808;-92
2024/03/11 01:22:17;;;;;;;34.72;17.25;;;5.80;99.90;;;;;;5047582;28;20091;-92
2024/03/11 01:24:44;;;;;;;35.33;16.83;;;5.80;99.90;;;;;;5043902;28;20171;-92
2024/03/11 01:27:11;;;;;;;31.85;16.52;;;5.80;99.90;;;;;;5057195;28;20131;-93
2024/03/11 01:29:41;;;;;;;32.78;16.38;;;6.90;99.90;;;;;;5057582;28;20116;-92
2024/03/11 01:32:11;;;;;;;27.83;15.40;;;5.80;99.90;;;;;;5047437;28;20049;-92
2024/03/11 01:34:40;;;;;;;32.28;16.48;;;5.80;99.90;;;;;;5046730;28;20071;-92
2024/03/11 01:37:07;;;;;;;31.13;17.17;;;6.30;99.90;;;;;;5054855;28;20032;-93
2024/03/11 01:39:43;;;;;;;33.15;17.17;;;6.60;99.90;;;;;;5048533;28;20075;-92
2024/03/11 01:42:14;;;;;;;33.15;16.25;;;5.80;99.90;;;;;;5049249;28;20122;-93
2024/03/11 01:44:42;;;;;;;36.03;15.95;;;5.70;99.90;;;;;;5056811;28;20037;-92
2024/03/11 01:47:12;;;;;;;31.33;16.08;;;6.10;99.90;;;;;;5071217;28;20045;-91
2024/03/11 01:49:41;;;;;;;34.60;17.20;;;6.70;99.90;;;;;;5056937;28;20032;-92
2024/03/11 01:52:11;;;;;;;31.30;16.10;;;6.80;99.90;;;;;;5057105;28;20029;-93
2024/03/11 01:54:38;;;;;;;34.28;16.58;;;6.10;99.90;;;;;;5057389;28;20037;-92
2024/03/11 01:57:06;;;;;;;30.00;15.73;;;5.80;99.90;;;;;;5055713;28;20079;-93
2024/03/11 01:59:35;;;;;;;33.95;16.13;;;5.80;99.90;;;;;;5055954;28;20113;-92
2024/03/11 02:02:07;;;;;;;29.88;16.10;;;5.70;99.90;;;;;;5046042;28;20040;-92
2024/03/11 02:04:35;;;;;;;30.98;16.30;;;6.20;99.90;;;;;;5044026;28;20171;-92
2024/03/11 02:07:03;;;;;;;30.60;15.77;;;5.70;99.90;;;;;;5056812;28;20033;-91
2024/03/11 02:09:30;;;;;;;32.33;16.13;;;5.80;99.90;;;;;;5056939;28;20037;-93
2024/03/11 02:11:59;;;;;;;31.35;16.30;;;6.80;99.90;;;;;;5054189;28;20044;-92
2024/03/11 02:14:26;;;;;;;37.70;16.88;;;6.30;99.90;;;;;;5057044;28;20462;-92
2024/03/11 02:16:53;;;;;;;33.45;16.38;;;5.80;99.90;;;;;;5057561;28;20076;-93
2024/03/11 02:19:20;;;;;;;33.38;16.38;;;5.80;99.90;;;;;;5057074;28;20033;-92
2024/03/11 02:21:47;;;;;;;28.05;15.70;;;5.80;99.90;;;;;;5052100;28;20037;-92
2024/03/11 02:24:15;;;;;;;30.17;15.80;;;6.00;99.90;;;;;;5047901;28;20045;-92
2024/03/11 02:26:45;;;;;;;29.92;16.02;;;6.40;99.90;;;;;;5043752;28;20045;-92
2024/03/11 02:29:16;;;;;;;30.88;15.38;;;5.90;99.90;;;;;;5056536;28;20045;-92
2024/03/11 02:31:47;;;;;;;36.78;16.45;;;5.80;99.90;;;;;;5050983;28;20049;-91
2024/03/11 02:34:15;;;;;;;29.98;15.82;;;6.50;99.90;;;;;;5050121;28;20056;-92
2024/03/11 02:36:50;;;;;;;33.55;17.02;;;5.90;99.90;;;;;;5066797;28;20041;-93
2024/03/11 02:39:20;;;;;;;30.92;16.75;;;6.00;99.90;;;;;;5054638;28;20043;-92
2024/03/11 02:41:49;;;;;;;32.55;16.20;;;6.00;99.90;;;;;;5044595;28;20175;-91
2024/03/11 02:44:16;;;;;;;36.28;16.00;;;6.00;99.90;;;;;;5046617;28;20041;-92
2024/03/11 02:46:43;;;;;;;30.65;15.98;;;6.50;99.90;;;;;;5054332;28;20041;-92
2024/03/11 02:49:10;;;;;;;35.00;16.25;;;7.10;99.90;;;;;;5053524;28;20120;-92
2024/03/11 02:51:41;;;;;;;31.73;16.33;;;6.90;99.90;;;;;;5056498;28;20041;-91
2024/03/11 02:54:08;;;;;;;30.35;15.50;;;6.10;99.90;;;;;;5056093;28;20485;-91
2024/03/11 02:56:38;;;;;;;30.02;16.75;;;7.20;99.90;;;;;;5053214;28;20055;-92
2024/03/11 02:59:05;;;;;;;31.83;15.63;;;6.20;99.90;;;;;;5072182;28;20501;-91
2024/03/11 03:01:32;;;;;;;30.40;15.63;;;6.60;99.90;;;;;;5047876;28;20038;-91
2024/03/11 03:03:59;;;;;;;30.27;16.05;;;7.00;99.90;;;;;;5048652;28;20033;-92
2024/03/11 03:06:27;;;;;;;30.75;15.40;;;6.90;99.90;;;;;;5055602;28;20040;-92
2024/03/11 03:08:54;;;;;;;35.08;17.70;;;6.20;99.90;;;;;;5055929;28;20422;-93
2024/03/11 03:11:21;;;;;;;28.77;15.90;;;6.20;99.90;;;;;;5055921;28;20037;-93
2024/03/11 03:13:48;;;;;;;30.52;14.95;;;6.20;99.90;;;;;;5053108;28;20098;-92
2024/03/11 03:16:15;;;;;;;32.70;16.23;;;6.20;99.90;;;;;;5049228;28;20041;-92
2024/03/11 03:18:42;;;;;;;29.15;15.85;;;6.20;99.90;;;;;;5055531;28;20109;-92
2024/03/11 03:21:10;;;;;;;31.45;16.75;;;6.60;99.90;;;;;;5055507;28;20045;-92
2024/03/11 03:23:37;;;;;;;32.72;16.42;;;6.90;99.90;;;;;;5046528;28;20079;-93
2024/03/11 03:26:04;;;;;;;35.35;16.27;;;6.80;99.90;;;;;;5040099;28;20044;-91
2024/03/11 03:28:31;;;;;;;31.25;16.35;;;6.80;99.90;;;;;;5050637;28;20041;-92
2024/03/11 03:30:58;;;;;;;30.13;16.17;;;6.20;99.90;;;;;;5047658;28;20057;-93
2024/03/11 03:33:27;;;;;;;31.67;16.65;;;6.20;99.90;;;;;;5055556;28;20048;-92
2024/03/11 03:35:55;;;;;;;28.23;16.27;;;6.20;99.90;;;;;;5053121;28;20048;-92
2024/03/11 03:38:22;;;;;;;35.05;16.40;;;6.40;99.90;;;;;;5051960;28;20120;-93
2024/03/11 03:40:49;;;;;;;31.02;15.80;;;6.10;99.90;;;;;;5053104;28;20041;-93
2024/03/11 03:43:16;;;;;;;36.15;16.58;;;7.20;99.90;;;;;;5045380;28;20051;-92
2024/03/11 03:45:44;;;;;;;29.45;15.80;;;7.20;99.90;;;;;;5048881;28;20067;-94
2024/03/11 03:48:10;;;;;;;32.20;15.77;;;7.00;99.90;;;;;;5050421;28;20414;-92
2024/03/11 03:50:37;;;;;;;29.83;16.15;;;7.00;99.90;;;;;;5053959;28;20098;-93
2024/03/11 03:53:04;;;;;;;28.30;15.27;;;6.90;99.90;;;;;;5051748;28;20044;-94
2024/03/11 03:55:30;;;;;;;28.23;14.85;;;6.10;99.90;;;;;;5037975;28;20037;-92
2024/03/11 03:57:58;;;;;;;33.83;17.10;;;7.10;99.90;;;;;;5055166;28;20037;-93
2024/03/11 04:00:24;;;;;;;31.35;15.10;;;6.00;99.90;;;;;;5054993;28;20079;-92
2024/03/11 04:02:51;;;;;;;30.95;15.48;;;6.90;99.90;;;;;;5042384;28;20072;-93
2024/03/11 04:05:19;;;;;;;31.90;16.02;;;7.10;99.90;;;;;;5048111;28;20041;-92
2024/03/11 04:07:46;;;;;;;31.38;16.05;;;6.00;99.90;;;;;;5053804;28;20070;-91
2024/03/11 04:10:14;;;;;;;30.95;15.70;;;7.00;99.90;;;;;;5046622;28;20029;-92
2024/03/11 04:12:44;;;;;;;32.10;15.70;;;6.50;99.90;;;;;;5040971;28;20075;-92
2024/03/11 04:15:13;;;;;;;30.90;15.55;;;7.00;99.90;;;;;;5041580;28;20041;-92
2024/03/11 04:17:44;;;;;;;34.38;16.45;;;6.70;99.90;;;;;;5054619;28;20094;-92
2024/03/11 04:20:12;;;;;;;29.52;16.05;;;6.40;99.90;;;;;;5054499;28;20097;-91
2024/03/11 04:22:44;;;;;;;32.65;15.93;;;6.00;99.90;;;;;;5055417;28;20048;-92
2024/03/11 04:25:16;;;;;;;31.42;15.63;;;6.00;99.90;;;;;;5051609;28;20036;-92
2024/03/11 04:27:47;;;;;;;33.03;15.40;;;6.50;99.90;;;;;;5053747;28;20106;-92
2024/03/11 04:30:15;;;;;;;28.30;14.60;;;6.50;99.90;;;;;;5052974;28;20844;-92
2024/03/11 04:32:52;;;;;;;29.58;15.05;;;7.10;99.90;;;;;;5053905;28;20060;-92
2024/03/11 04:35:26;;;;;;;29.90;16.30;;;6.00;99.90;;;;;;5040852;28;20036;-92
2024/03/11 04:38:10;;;;;;;29.90;14.80;;;6.80;99.90;;;;;;5052447;28;20493;-91
2024/03/11 04:40:47;;;;;;;30.60;15.82;;;6.00;99.90;;;;;;5038605;28;20041;-92
2024/03/11 04:43:13;;;;;;;28.92;15.10;;;6.00;99.90;;;;;;5045856;28;20055;-93
2024/03/11 04:45:40;;;;;;;33.33;14.77;;;7.10;99.90;;;;;;5045627;28;20041;-91
2024/03/11 04:48:09;;;;;;;33.00;16.10;;;6.00;99.90;;;;;;5045044;28;20049;-93
2024/03/11 04:50:38;;;;;;;33.53;16.52;;;6.00;99.90;;;;;;5049533;28;20378;-93
2024/03/11 04:53:08;;;;;;;30.48;15.90;;;6.40;99.90;;;;;;5054826;28;20044;-92
2024/03/11 04:55:38;;;;;;;30.02;15.65;;;6.30;99.90;;;;;;5049610;28;20410;-92
2024/03/11 04:58:05;;;;;;;32.85;14.60;;;5.90;99.90;;;;;;5047060;28;20041;-92
2024/03/11 05:00:32;;;;;;;32.72;15.50;;;6.00;99.90;;;;;;5051966;28;20091;-93
2024/03/11 05:03:01;;;;;;;30.52;15.13;;;6.50;99.90;;;;;;5045309;28;20029;-92
2024/03/11 05:05:35;;;;;;;30.25;14.75;;;7.10;99.90;;;;;;5046368;28;20044;-92
2024/03/11 05:08:03;;;;;;;30.33;14.63;;;7.00;99.90;;;;;;5048405;28;20429;-91
2024/03/11 05:10:31;;;;;;;29.67;14.43;;;5.90;99.90;;;;;;5053877;28;20048;-92
2024/03/11 05:12:58;;;;;;;29.98;14.23;;;6.90;99.90;;;;;;5051470;28;20125;-91
2024/03/11 05:15:28;;;;;;;32.45;15.50;;;5.90;99.90;;;;;;5050020;28;20403;-92
2024/03/11 05:17:55;;;;;;;33.50;15.35;;;5.90;99.90;;;;;;5049542;28;20483;-92
2024/03/11 05:20:22;;;;;;;31.73;15.40;;;6.40;99.90;;;;;;5054185;28;20068;-92
2024/03/11 05:22:49;;;;;;;27.13;14.55;;;6.60;99.90;;;;;;5070390;28;20075;-92
2024/03/11 05:25:17;;;;;;;30.70;14.98;;;5.90;99.90;;;;;;5048410;28;20053;-93
2024/03/11 05:27:46;;;;;;;30.80;14.48;;;6.70;99.90;;;;;;5049543;28;20045;-91
2024/03/11 05:30:14;;;;;;;34.50;15.73;;;7.00;99.90;;;;;;5047832;28;20113;-92
2024/03/11 05:32:41;;;;;;;35.67;16.55;;;5.90;99.90;;;;;;5057518;28;20132;-92
2024/03/11 05:35:08;;;;;;;31.17;15.00;;;6.00;99.90;;;;;;5053268;28;20067;-92
2024/03/11 05:37:34;;;;;;;25.80;14.57;;;5.90;99.90;;;;;;5046659;28;20034;-92
2024/03/11 05:40:05;;;;;;;28.30;14.35;;;7.10;99.90;;;;;;5044198;28;20033;-93
2024/03/11 05:42:35;;;;;;;32.65;15.05;;;5.90;99.90;;;;;;5053531;28;20068;-93
2024/03/11 05:45:02;;;;;;;31.17;15.27;;;6.70;99.90;;;;;;5051090;28;20036;-92
2024/03/11 05:47:29;;;;;;;32.30;15.07;;;5.50;99.90;;;;;;5044441;28;20116;-92
2024/03/11 05:49:55;;;;;;;34.63;15.20;;;6.00;99.90;;;;;;5048117;28;20037;-92
2024/03/11 05:52:24;;;;;;;30.88;14.23;;;6.20;99.90;;;;;;5040742;28;20048;-92
2024/03/11 05:54:52;;;;;;;33.90;14.23;;;6.80;99.90;;;;;;5044354;28;20124;-91
2024/03/11 05:57:42;;;;;;;29.17;14.45;;;5.80;99.90;;;;;;5053123;28;20034;-91
2024/03/11 06:00:10;;;;;;;27.80;14.13;;;5.80;99.90;;;;;;5063830;28;20072;-92
2024/03/11 06:02:37;;;;;;;32.08;14.85;;;5.80;99.90;;;;;;5040800;28;20403;-92
2024/03/11 06:05:05;;;;;;;27.45;14.07;;;5.80;99.90;;;;;;5055631;28;20049;-92
2024/03/11 06:07:33;;;;;;;27.13;13.90;;;5.80;99.90;;;;;;5054547;28;20097;-91
2024/03/11 06:10:00;;;;;;;29.98;13.68;;;5.80;99.90;;;;;;5045624;28;20037;-93
2024/03/11 06:12:28;;;;;;;29.45;14.40;;;5.80;99.90;;;;;;5042990;28;20107;-93
2024/03/11 06:14:54;;;;;;;31.88;14.88;;;7.10;99.90;;;;;;5046318;28;20123;-92
2024/03/11 06:17:21;;;;;;;28.13;14.43;;;5.80;99.90;;;;;;5051592;28;20038;-92
2024/03/11 06:19:48;;;;;;;27.67;13.80;;;6.00;99.90;;;;;;5053753;28;20075;-93
2024/03/11 06:22:16;;;;;;;29.20;13.90;;;5.80;99.90;;;;;;5043947;28;20033;-92
2024/03/11 06:24:43;;;;;;;32.35;13.82;;;5.90;99.90;;;;;;5037039;28;20037;-92
2024/03/11 06:27:10;;;;;;;29.77;14.07;;;6.30;99.90;;;;;;5056269;28;20816;-91
2024/03/11 06:29:37;;;;;;;30.75;14.57;;;5.80;99.90;;;;;;5043462;28;20153;-92
2024/03/11 06:32:07;;;;;;;28.60;13.93;;;6.50;99.90;;;;;;5056028;28;20055;-92
2024/03/11 06:34:34;;;;;;;27.20;13.48;;;6.40;99.90;;;;;;5054488;28;20128;-91
2024/03/11 06:37:01;;;;;;;28.20;13.43;;;5.80;99.90;;;;;;5054719;28;20032;-92
2024/03/11 06:39:29;;;;;;;27.17;13.45;;;6.90;99.90;;;;;;5051802;28;20033;-92
2024/03/11 06:41:57;;;;;;;29.55;14.48;;;5.80;99.90;;;;;;5046007;28;20037;-92
2024/03/11 06:44:24;;;;;;;28.98;13.40;;;5.80;99.90;;;;;;5049187;28;20076;-92
2024/03/11 06:46:51;;;;;;;29.55;13.68;;;5.80;99.90;;;;;;5056469;28;20041;-92
2024/03/11 06:49:18;;;;;;;31.55;13.68;;;5.80;99.90;;;;;;5047651;28;20063;-92
2024/03/11 06:51:45;;;;;;;29.20;14.23;;;6.10;99.90;;;;;;5051305;28;20044;-92
2024/03/11 06:54:11;;;;;;;27.80;12.70;;;5.80;99.90;;;;;;5056217;28;20079;-91
2024/03/11 06:56:38;;;;;;;24.73;13.30;;;5.80;99.90;;;;;;5055924;28;20045;-92
2024/03/11 06:59:10;;;;;;;27.02;13.32;;;5.80;99.90;;;;;;5043434;28;20120;-92
2024/03/11 07:01:37;;;;;;;30.45;13.38;;;5.80;99.90;;;;;;5047849;28;20034;-92
2024/03/11 07:04:04;;;;;;;27.88;13.73;;;6.80;99.90;;;;;;5053291;28;20041;-92
2024/03/11 07:06:31;;;;;;;30.75;14.63;;;5.80;99.90;;;;;;5036289;28;20084;-92
2024/03/11 07:08:57;;;;;;;26.88;13.85;;;7.10;99.90;;;;;;5052527;28;20493;-92
2024/03/11 07:11:24;;;;;;;27.33;13.38;;;5.90;99.90;;;;;;5050147;28;20045;-93
2024/03/11 07:13:51;;;;;;;32.35;13.98;;;7.00;99.90;;;;;;5053013;28;20105;-93
2024/03/11 07:16:18;;;;;;;27.67;14.02;;;7.10;99.90;;;;;;5047082;28;20042;-94
2024/03/11 07:18:46;;;;;;;24.20;12.82;;;5.80;99.90;;;;;;5051741;28;20469;-95
2024/03/11 07:21:12;;;;;;;26.35;13.65;;;6.40;99.90;;;;;;5044252;28;20033;-93
2024/03/11 07:23:39;;;;;;;27.35;13.68;;;6.80;99.90;;;;;;5042461;28;20059;-94
2024/03/11 07:26:07;;;;;;;29.70;13.70;;;7.00;99.90;;;;;;5055458;28;20083;-93
2024/03/11 07:28:34;;;;;;;27.42;13.20;;;5.90;99.90;;;;;;5055109;28;20044;-93
2024/03/11 07:31:01;;;;;;;28.13;13.45;;;6.00;99.90;;;;;;5055117;28;20452;-93
2024/03/11 07:33:27;;;;;;;30.27;13.25;;;6.20;99.90;;;;;;5055778;28;20032;-93
2024/03/11 07:35:55;;;;;;;29.92;13.52;;;6.00;99.90;;;;;;5050143;28;20050;-93
2024/03/11 07:38:25;;;;;;;30.10;13.45;;;6.00;99.90;;;;;;5049741;28;20088;-93
2024/03/11 07:40:52;;;;;;;27.10;13.00;;;6.40;99.90;;;;;;5046225;28;20040;-94
2024/03/11 07:43:19;;;;;;;29.40;13.32;;;7.00;99.90;;;;;;5040632;28;20050;-95
2024/03/11 07:45:45;;;;;;;27.92;13.35;;;6.60;99.90;;;;;;5047648;28;20386;-95
2024/03/11 07:48:13;;;;;;;29.23;13.43;;;6.10;99.90;;;;;;5043645;28;20095;-92
2024/03/11 07:50:40;;;;;;;26.75;13.65;;;6.10;99.90;;;;;;5045928;28;20040;-93
2024/03/11 07:53:06;;;;;;;30.77;12.65;;;6.10;99.90;;;;;;5045537;28;20048;-92
2024/03/11 07:55:37;;;;;;;26.20;12.82;;;6.10;99.90;;;;;;5040777;28;20052;-92
2024/03/11 07:58:05;;;;;;;30.42;14.13;;;7.10;99.90;;;;;;5049874;28;20041;-90
2024/03/11 08:00:36;;;;;;;26.95;12.70;;;6.60;99.90;;;;;;5048281;28;20072;-91
2024/03/11 08:03:07;;;;;;;24.60;12.48;;;6.20;99.90;;;;;;5042314;28;20478;-91
2024/03/11 08:05:37;;;;;;;23.33;12.05;;;6.20;99.90;;;;;;5051782;28;20048;-90
2024/03/11 08:08:04;;;;;;;26.35;12.30;;;6.60;99.90;;;;;;5044588;28;20061;-92
2024/03/11 08:10:31;;;;;;;26.17;13.02;;;6.30;99.90;;;;;;5050886;28;20033;-92
2024/03/11 08:12:58;;;;;;;28.00;13.45;;;6.30;99.90;;;;;;5050791;28;20037;-94
2024/03/11 08:15:24;;;;;;;27.10;13.27;;;6.40;99.90;;;;;;5055618;28;20396;-95
2024/03/11 08:17:52;;;;;;;23.83;12.75;;;7.30;99.90;;;;;;5048431;28;20032;-93
2024/03/11 08:20:24;;;;;;;25.42;13.13;;;7.30;99.90;;;;;;5047123;28;20095;-92
2024/03/11 08:22:52;;;;;;;22.33;12.38;;;6.30;99.90;;;;;;5050989;28;20478;-93
2024/03/11 08:25:22;;;;;;;24.98;13.23;;;6.40;99.90;;;;;;5045874;28;20037;-93
2024/03/11 08:27:53;;;;;;;26.80;12.25;;;6.40;99.90;;;;;;5048598;28;20570;-93
2024/03/11 08:30:27;;;;;;;23.88;12.40;;;6.50;99.90;;;;;;5046053;28;20079;-93
2024/03/11 08:32:54;;;;;;;25.90;13.10;;;6.50;99.90;;;;;;5051414;28;20037;-93
2024/03/11 08:35:23;;;;;;;23.40;12.40;;;7.80;99.90;;;;;;5048133;28;20041;-92
2024/03/11 08:37:50;;;;;;;25.48;12.43;;;6.60;99.90;;;;;;5045425;28;20037;-95
2024/03/11 08:40:19;;;;;;;25.10;12.05;;;6.80;99.90;;;;;;5043639;28;20073;-92
2024/03/11 08:42:50;;;;;;;25.48;12.68;;;7.20;99.90;;;;;;5042556;28;20037;-93
2024/03/11 08:45:18;;;;;;;26.80;13.43;;;7.20;99.90;;;;;;5044721;28;20049;-92
2024/03/11 08:47:48;;;;;;;26.58;12.85;;;6.50;99.90;;;;;;5042317;28;20133;-92
2024/03/11 08:50:16;;;;;;;25.98;12.48;;;6.50;99.90;;;;;;5055088;28;20055;-90
2024/03/11 08:52:45;;;;;;;26.27;12.65;;;7.40;99.90;;;;;;5042772;28;20613;-95
2024/03/11 08:55:13;;;;;;;29.02;13.85;;;6.50;99.90;;;;;;5052803;28;20045;-93
2024/03/11 08:57:42;;;;;;;27.90;13.20;;;6.50;99.90;;;;;;5046366;28;20120;-94
2024/03/11 09:00:11;;;;;;;24.48;12.43;;;6.50;99.90;;;;;;5046772;28;20042;-94
2024/03/11 09:02:39;;;;;;;24.55;12.77;;;6.50;99.90;;;;;;5044112;28;20478;-93
2024/03/11 09:05:10;;;;;;;22.88;12.95;;;7.30;99.90;;;;;;5052099;28;20048;-93
2024/03/11 09:07:40;;;;;;;23.45;12.50;;;6.50;99.90;;;;;;5048224;28;20055;-92
2024/03/11 09:10:08;;;;;;;26.17;12.80;;;6.50;99.90;;;;;;5045044;28;20037;-94
2024/03/11 09:12:37;;;;;;;29.25;13.52;;;6.10;99.90;;;;;;5036454;28;20777;-94
2024/03/11 09:15:12;;;;;;;28.13;13.10;;;7.10;99.90;;;;;;5052835;28;20041;-94
2024/03/11 09:17:42;;;;;;;26.95;13.10;;;6.50;99.90;;;;;;5043761;28;20033;-95
2024/03/11 09:20:15;;;;;;;24.45;13.43;;;6.60;99.90;;;;;;5053715;28;20082;-93
2024/03/11 09:22:47;;;;;;;27.38;13.23;;;7.30;99.90;;;;;;5054603;28;20117;-94
2024/03/11 09:25:17;;;;;;;26.98;13.15;;;7.10;99.90;;;;;;5043949;28;20471;-94
2024/03/11 09:27:49;;;;;;;28.63;13.73;;;6.50;99.90;;;;;;5041992;28;20048;-94
2024/03/11 09:30:17;;;;;;;24.23;13.10;;;6.60;99.90;;;;;;5048785;28;20037;-92
2024/03/11 09:32:46;;;;;;;31.38;13.27;;;6.60;99.90;;;;;;5053448;28;20066;-93
2024/03/11 09:35:16;;;;;;;26.75;13.43;;;6.60;99.90;;;;;;5060087;28;20041;-92
2024/03/11 09:37:51;;;;;;;27.38;14.00;;;7.60;99.90;;;;;;5046943;28;20071;-91
2024/03/11 09:40:20;;;;;;;27.08;12.73;;;6.60;99.90;;;;;;5057773;28;20068;-93
2024/03/11 09:42:52;;;;;;;27.45;12.93;;;7.60;99.90;;;;;;5057271;28;20110;-93
2024/03/11 09:45:22;;;;;;;25.60;12.90;;;7.30;99.90;;;;;;5050648;28;20041;-90
2024/03/11 09:47:57;;;;;;;29.52;13.60;;;7.20;99.90;;;;;;5058478;28;20037;-93
2024/03/11 09:50:27;;;;;;;26.73;13.03;;;6.80;99.90;;;;;;5063297;28;20037;-94
2024/03/11 09:53:06;;;;;;;28.50;13.55;;;6.80;99.90;;;;;;5050081;28;20048;-94
2024/03/11 09:55:36;;;;;;;25.33;12.35;;;6.90;99.90;;;;;;5053435;28;20041;-94
2024/03/11 09:58:11;;;;;;;26.52;13.02;;;7.00;99.90;;;;;;5050071;28;20120;-92
2024/03/11 10:00:49;;;;;;;27.25;13.98;;;8.20;99.90;;;;;;5058009;28;20044;-93
2024/03/11 10:03:20;;;;;;;23.40;13.20;;;7.10;99.90;;;;;;5052112;28;20063;-94
2024/03/11 10:05:54;;;;;;;25.42;12.30;;;7.10;99.90;;;;;;5059029;28;20401;-92
2024/03/11 10:08:21;;;;;;;23.92;13.27;;;7.20;99.90;;;;;;5040533;28;20037;-93
2024/03/11 10:11:14;;;;;;;24.38;12.57;;;7.30;99.90;;;;;;5054214;28;20071;-92
2024/03/11 10:13:43;;;;;;;27.05;13.20;;;7.20;99.90;;;;;;5047773;28;20175;-94
2024/03/11 10:16:16;;;;;;;27.13;13.02;;;7.20;99.90;;;;;;5051544;28;20124;-93
2024/03/11 10:19:11;;;;;;;22.52;12.02;;;7.30;99.90;;;;;;5041564;28;20037;-93
2024/03/11 10:21:42;;;;;;;26.63;13.10;;;7.40;99.90;;;;;;5048851;28;20045;-94
2024/03/11 10:24:09;;;;;;;26.25;13.05;;;7.80;99.90;;;;;;5055608;28;20036;-93
2024/03/11 10:26:41;;;;;;;25.17;12.85;;;7.40;99.90;;;;;;5056262;28;20037;-92
2024/03/11 10:29:11;;;;;;;22.40;12.68;;;8.40;99.90;;;;;;5048494;28;20048;-95
2024/03/11 10:31:40;;;;;;;24.67;13.07;;;7.40;99.90;;;;;;5046290;28;20061;-95
2024/03/11 10:34:20;;;;;;;23.73;12.70;;;7.30;99.90;;;;;;5051561;28;20041;-95
2024/03/11 10:36:55;;;;;;;27.35;12.77;;;7.30;99.90;;;;;;5058467;28;20072;-92
2024/03/11 10:41:50;;;;;;;25.40;12.85;;;8.00;99.90;;;;;;5069655;28;20049;-95
2024/03/11 10:44:23;;;;;;;28.10;13.63;;;7.00;99.90;;;;;;5051252;28;20035;-94
2024/03/11 10:46:53;;;;;;;27.08;13.05;;;7.50;99.90;;;;;;5053346;28;20069;-96
2024/03/11 10:49:25;;;;;;;23.02;12.32;;;7.60;99.90;;;;;;5048963;28;20037;-94
2024/03/11 10:51:57;;;;;;;23.23;12.90;;;8.70;99.90;;;;;;5057108;28;20043;-93
2024/03/11 10:54:31;;;;;;;23.67;12.52;;;7.80;99.90;;;;;;5054582;28;20084;-95
2024/03/11 10:57:01;;;;;;;25.10;12.48;;;8.00;99.90;;;;;;5058036;28;20051;-95
2024/03/11 10:59:42;;;;;;;22.63;12.55;;;8.00;99.90;;;;;;5047703;28;20044;-94
2024/03/11 11:02:26;;;;;;;28.20;13.13;;;7.80;99.90;;;;;;5059228;28;20036;-92
2024/03/11 11:04:53;;;;;;;23.73;12.80;;;9.00;99.90;;;;;;5050934;28;20068;-96
2024/03/11 11:07:30;;;;;;;27.52;12.90;;;7.90;99.90;;;;;;5041114;28;20041;-94
2024/03/11 11:10:01;;;;;;;26.48;12.73;;;8.40;99.90;;;;;;5046735;28;20501;-94
2024/03/11 11:13:41;;;;;;;22.10;13.15;;;8.50;99.90;;;;;;5055983;28;20041;-95
2024/03/11 11:16:37;;;;;;;27.92;13.43;;;8.00;99.90;;;;;;5055191;28;20076;-94
2024/03/11 11:19:05;;;;;;;24.52;12.60;;;8.50;99.90;;;;;;5039518;28;20620;-94
2024/03/11 11:21:32;;;;;;;24.70;12.48;;;8.30;99.90;;;;;;5049213;28;20034;-93
2024/03/11 11:24:23;;;;;;;22.75;12.43;;;8.60;99.90;;;;;;5046829;28;20506;-95
2024/03/11 11:26:50;;;;;;;22.67;12.90;;;8.70;99.90;;;;;;5054935;28;20048;-95
2024/03/11 11:29:29;;;;;;;24.25;13.63;;;8.80;99.90;;;;;;5049492;28;20050;-96
2024/03/11 11:32:18;;;;;;;25.42;13.35;;;8.90;99.90;;;;;;5052562;28;20052;-94
2024/03/11 11:34:44;;;;;;;26.25;13.23;;;9.80;99.90;;;;;;5053184;28;20044;-94
2024/03/11 11:37:30;;;;;;;22.83;12.35;;;9.60;99.90;;;;;;5047738;28;20418;-95
2024/03/11 11:39:57;;;;;;;22.00;12.45;;;8.80;99.90;;;;;;5051631;28;20041;-95
2024/03/11 11:42:36;;;;;;;21.08;12.52;;;9.50;99.90;;;;;;5061620;28;20073;-95
2024/03/11 11:45:11;;;;;;;24.08;12.65;;;8.80;99.90;;;;;;5068762;28;20449;-95
2024/03/11 11:47:38;;;;;;;24.50;13.07;;;8.90;99.90;;;;;;5052363;28;20041;-95
2024/03/11 11:50:28;;;;;;;27.27;13.30;;;9.10;99.90;;;;;;5055518;28;20106;-95
2024/03/11 11:53:02;;;;;;;21.77;13.13;;;8.30;99.90;;;;;;5049023;28;20047;-94
2024/03/11 11:55:30;;;;;;;26.00;13.07;;;9.20;99.90;;;;;;5053824;28;20099;-95
2024/03/11 11:58:10;;;;;;;26.17;14.00;;;9.20;99.90;;;;;;5040105;28;20498;-95
2024/03/11 12:00:40;;;;;;;23.85;13.15;;;9.30;99.90;;;;;;5049652;28;20043;-93
2024/03/11 12:03:32;;;;;;;25.58;13.02;;;9.30;99.90;;;;;;5047111;28;20033;-94
2024/03/11 12:06:08;;;;;;;27.42;13.50;;;8.70;99.90;;;;;;5049508;28;20049;-92
2024/03/11 12:08:35;;;;;;;23.52;13.20;;;9.40;99.90;;;;;;5044327;28;20159;-95
2024/03/11 12:11:15;;;;;;;26.30;13.65;;;9.40;99.90;;;;;;5052485;28;20064;-94
2024/03/11 12:13:43;;;;;;;27.17;13.10;;;9.50;99.90;;;;;;5053567;28;20040;-94
2024/03/11 12:16:20;;;;;;;26.00;12.93;;;9.60;99.90;;;;;;5048578;28;20138;-95
2024/03/11 12:19:05;;;;;;;21.50;12.80;;;9.70;99.90;;;;;;5055440;28;20068;-93
2024/03/11 12:21:33;;;;;;;25.63;13.23;;;9.70;99.90;;;;;;5057474;28;20095;-95
2024/03/11 12:24:01;;;;;;;24.70;13.23;;;9.80;99.90;;;;;;5057681;28;20510;-95
2024/03/11 12:26:29;;;;;;;27.80;13.52;;;9.70;99.90;;;;;;5054817;28;20079;-95
2024/03/11 12:29:07;;;;;;;23.98;13.77;;;9.70;99.90;;;;;;5053447;28;20033;-95
2024/03/11 12:31:36;;;;;;;24.75;13.52;;;9.80;99.90;;;;;;5050332;28;20120;-95
2024/03/11 12:34:09;;;;;;;27.38;15.07;;;9.80;99.90;;;;;;5046450;28;20048;-94
2024/03/11 12:36:47;;;;;;;25.73;14.05;;;9.80;99.90;;;;;;5051146;28;20034;-95
2024/03/11 12:39:56;;;;;;;25.20;13.95;;;9.70;99.90;;;;;;5047286;28;20060;-95
2024/03/11 12:42:08;;;;;;;27.35;14.15;;;9.80;99.90;;;;;;5040440;28;20030;-94
2024/03/11 12:44:36;;;;;;;25.45;14.57;;;9.70;99.90;;;;;;5042890;28;20045;-96
2024/03/11 12:47:05;;;;;;;25.90;14.65;;;9.70;99.90;;;;;;5049345;28;20037;-94
2024/03/11 12:49:31;;;;;;;24.00;14.13;;;9.60;99.90;;;;;;5048881;28;20042;-95
2024/03/11 12:52:08;;;;;;;26.40;14.82;;;10.20;99.90;;;;;;5041261;28;20506;-96